sensor_id;sensor_type;location;lat;lon;timestamp;P1;durP1;ratioP1;P2;durP2;ratioP2
11004;SDS011;5555;59.622;16.556;2022-12-18T00:02:16;26.60;;;19.53;;
11004;SDS011;5555;59.622;16.556;2022-12-18T00:04:42;27.10;;;19.30;;
11004;SDS011;5555;59.622;16.556;2022-12-18T00:07:07;26.47;;;19.60;;
11004;SDS011;5555;59.622;16.556;2022-12-18T00:09:33;23.43;;;18.87;;
11004;SDS011;5555;59.622;16.556;2022-12-18T00:11:59;25.93;;;19.70;;
11004;SDS011;5555;59.622;16.556;2022-12-18T00:14:24;27.00;;;20.40;;
11004;SDS011;5555;59.622;16.556;2022-12-18T00:16:50;30.63;;;19.70;;
11004;SDS011;5555;59.622;16.556;2022-12-18T00:19:16;23.93;;;19.13;;
11004;SDS011;5555;59.622;16.556;2022-12-18T00:21:42;26.33;;;19.77;;
11004;SDS011;5555;59.622;16.556;2022-12-18T00:24:09;27.87;;;19.40;;
11004;SDS011;5555;59.622;16.556;2022-12-18T00:26:36;27.13;;;19.60;;
11004;SDS011;5555;59.622;16.556;2022-12-18T00:29:07;24.97;;;19.57;;
11004;SDS011;5555;59.622;16.556;2022-12-18T00:31:39;27.77;;;19.33;;
11004;SDS011;5555;59.622;16.556;2022-12-18T00:34:05;28.60;;;20.83;;
11004;SDS011;5555;59.622;16.556;2022-12-18T00:36:32;29.47;;;21.73;;
11004;SDS011;5555;59.622;16.556;2022-12-18T00:38:59;27.80;;;20.13;;
11004;SDS011;5555;59.622;16.556;2022-12-18T00:41:27;26.13;;;19.93;;
11004;SDS011;5555;59.622;16.556;2022-12-18T00:44:12;27.00;;;19.93;;
11004;SDS011;5555;59.622;16.556;2022-12-18T00:46:40;25.33;;;19.53;;
11004;SDS011;5555;59.622;16.556;2022-12-18T00:49:06;29.20;;;20.13;;
11004;SDS011;5555;59.622;16.556;2022-12-18T00:51:32;28.67;;;19.97;;
11004;SDS011;5555;59.622;16.556;2022-12-18T00:53:58;24.77;;;17.90;;
11004;SDS011;5555;59.622;16.556;2022-12-18T00:56:23;27.73;;;19.63;;
11004;SDS011;5555;59.622;16.556;2022-12-18T00:58:50;26.70;;;18.43;;
11004;SDS011;5555;59.622;16.556;2022-12-18T01:01:15;26.73;;;19.63;;
11004;SDS011;5555;59.622;16.556;2022-12-18T01:03:42;27.50;;;19.33;;
11004;SDS011;5555;59.622;16.556;2022-12-18T01:06:08;23.97;;;18.73;;
11004;SDS011;5555;59.622;16.556;2022-12-18T01:08:36;23.83;;;18.33;;
11004;SDS011;5555;59.622;16.556;2022-12-18T01:11:09;27.83;;;19.50;;
11004;SDS011;5555;59.622;16.556;2022-12-18T01:13:37;27.63;;;20.00;;
11004;SDS011;5555;59.622;16.556;2022-12-18T01:16:04;25.23;;;18.47;;
11004;SDS011;5555;59.622;16.556;2022-12-18T01:18:30;26.63;;;19.20;;
11004;SDS011;5555;59.622;16.556;2022-12-18T01:20:55;24.07;;;19.27;;
11004;SDS011;5555;59.622;16.556;2022-12-18T01:23:21;24.47;;;19.67;;
11004;SDS011;5555;59.622;16.556;2022-12-18T01:25:46;27.27;;;18.90;;
11004;SDS011;5555;59.622;16.556;2022-12-18T01:28:13;24.83;;;18.37;;
11004;SDS011;5555;59.622;16.556;2022-12-18T01:30:39;25.10;;;18.47;;
11004;SDS011;5555;59.622;16.556;2022-12-18T01:33:05;25.30;;;19.30;;
11004;SDS011;5555;59.622;16.556;2022-12-18T01:35:30;23.53;;;18.07;;
11004;SDS011;5555;59.622;16.556;2022-12-18T01:37:56;22.77;;;17.50;;
11004;SDS011;5555;59.622;16.556;2022-12-18T01:40:22;27.73;;;18.53;;
11004;SDS011;5555;59.622;16.556;2022-12-18T01:42:52;23.63;;;18.80;;
11004;SDS011;5555;59.622;16.556;2022-12-18T01:47:51;26.33;;;18.87;;
11004;SDS011;5555;59.622;16.556;2022-12-18T01:50:31;24.03;;;18.70;;
11004;SDS011;5555;59.622;16.556;2022-12-18T01:53:19;24.30;;;19.27;;
11004;SDS011;5555;59.622;16.556;2022-12-18T01:55:48;24.57;;;18.87;;
11004;SDS011;5555;59.622;16.556;2022-12-18T01:58:17;24.37;;;18.87;;
11004;SDS011;5555;59.622;16.556;2022-12-18T02:00:44;25.03;;;18.50;;
11004;SDS011;5555;59.622;16.556;2022-12-18T02:03:10;22.83;;;18.50;;
11004;SDS011;5555;59.622;16.556;2022-12-18T02:05:57;27.77;;;19.67;;
11004;SDS011;5555;59.622;16.556;2022-12-18T02:11:50;25.47;;;18.53;;
11004;SDS011;5555;59.622;16.556;2022-12-18T02:16:54;25.93;;;19.77;;
11004;SDS011;5555;59.622;16.556;2022-12-18T02:19:37;26.23;;;18.70;;
11004;SDS011;5555;59.622;16.556;2022-12-18T02:28:19;27.50;;;19.70;;
11004;SDS011;5555;59.622;16.556;2022-12-18T02:30:49;27.13;;;19.73;;
11004;SDS011;5555;59.622;16.556;2022-12-18T02:33:18;28.80;;;18.93;;
11004;SDS011;5555;59.622;16.556;2022-12-18T02:35:45;27.53;;;19.50;;
11004;SDS011;5555;59.622;16.556;2022-12-18T02:38:12;26.27;;;20.20;;
11004;SDS011;5555;59.622;16.556;2022-12-18T02:40:40;25.37;;;19.20;;
11004;SDS011;5555;59.622;16.556;2022-12-18T02:43:08;29.00;;;21.03;;
11004;SDS011;5555;59.622;16.556;2022-12-18T02:45:37;28.60;;;20.70;;
11004;SDS011;5555;59.622;16.556;2022-12-18T02:48:19;29.70;;;21.27;;
11004;SDS011;5555;59.622;16.556;2022-12-18T02:51:06;31.00;;;20.40;;
11004;SDS011;5555;59.622;16.556;2022-12-18T02:53:52;27.23;;;21.03;;
11004;SDS011;5555;59.622;16.556;2022-12-18T02:56:28;30.60;;;20.67;;
11004;SDS011;5555;59.622;16.556;2022-12-18T02:59:14;27.30;;;20.60;;
11004;SDS011;5555;59.622;16.556;2022-12-18T03:08:02;26.63;;;20.67;;
11004;SDS011;5555;59.622;16.556;2022-12-18T03:10:29;27.83;;;20.37;;
11004;SDS011;5555;59.622;16.556;2022-12-18T03:13:06;30.37;;;21.47;;
11004;SDS011;5555;59.622;16.556;2022-12-18T03:15:37;31.33;;;21.00;;
11004;SDS011;5555;59.622;16.556;2022-12-18T03:18:30;28.30;;;20.47;;
11004;SDS011;5555;59.622;16.556;2022-12-18T03:20:58;29.33;;;20.77;;
11004;SDS011;5555;59.622;16.556;2022-12-18T03:23:29;26.53;;;19.40;;
11004;SDS011;5555;59.622;16.556;2022-12-18T03:26:02;24.60;;;19.20;;
11004;SDS011;5555;59.622;16.556;2022-12-18T03:28:32;27.07;;;18.37;;
11004;SDS011;5555;59.622;16.556;2022-12-18T03:31:01;27.80;;;19.37;;
11004;SDS011;5555;59.622;16.556;2022-12-18T03:33:52;25.57;;;18.00;;
11004;SDS011;5555;59.622;16.556;2022-12-18T03:36:20;26.03;;;18.77;;
11004;SDS011;5555;59.622;16.556;2022-12-18T03:38:46;23.77;;;18.80;;
11004;SDS011;5555;59.622;16.556;2022-12-18T03:43:52;26.27;;;19.00;;
11004;SDS011;5555;59.622;16.556;2022-12-18T03:47:09;26.43;;;17.47;;
11004;SDS011;5555;59.622;16.556;2022-12-18T03:54:53;22.67;;;18.20;;
11004;SDS011;5555;59.622;16.556;2022-12-18T03:57:21;22.07;;;17.80;;
11004;SDS011;5555;59.622;16.556;2022-12-18T03:59:51;24.57;;;17.43;;
11004;SDS011;5555;59.622;16.556;2022-12-18T04:02:21;22.10;;;16.80;;
11004;SDS011;5555;59.622;16.556;2022-12-18T04:04:48;22.50;;;16.83;;
11004;SDS011;5555;59.622;16.556;2022-12-18T04:07:18;25.47;;;17.73;;
11004;SDS011;5555;59.622;16.556;2022-12-18T04:09:45;21.07;;;15.90;;
11004;SDS011;5555;59.622;16.556;2022-12-18T04:12:13;21.27;;;16.00;;
11004;SDS011;5555;59.622;16.556;2022-12-18T04:14:38;20.90;;;15.87;;
11004;SDS011;5555;59.622;16.556;2022-12-18T04:17:04;26.10;;;17.57;;
11004;SDS011;5555;59.622;16.556;2022-12-18T04:19:30;24.23;;;17.23;;
11004;SDS011;5555;59.622;16.556;2022-12-18T04:21:55;24.13;;;16.37;;
11004;SDS011;5555;59.622;16.556;2022-12-18T04:24:21;21.63;;;16.50;;
11004;SDS011;5555;59.622;16.556;2022-12-18T04:26:47;23.33;;;16.80;;
11004;SDS011;5555;59.622;16.556;2022-12-18T04:29:12;23.63;;;17.17;;
11004;SDS011;5555;59.622;16.556;2022-12-18T04:31:38;22.13;;;15.83;;
11004;SDS011;5555;59.622;16.556;2022-12-18T04:34:04;20.67;;;15.73;;
11004;SDS011;5555;59.622;16.556;2022-12-18T04:36:29;22.70;;;16.70;;
11004;SDS011;5555;59.622;16.556;2022-12-18T04:38:55;22.33;;;16.37;;
11004;SDS011;5555;59.622;16.556;2022-12-18T04:41:21;23.40;;;17.20;;
11004;SDS011;5555;59.622;16.556;2022-12-18T04:43:46;22.50;;;17.17;;
11004;SDS011;5555;59.622;16.556;2022-12-18T04:46:12;23.93;;;16.23;;
11004;SDS011;5555;59.622;16.556;2022-12-18T04:48:38;21.17;;;17.00;;
11004;SDS011;5555;59.622;16.556;2022-12-18T04:51:04;23.97;;;16.63;;
11004;SDS011;5555;59.622;16.556;2022-12-18T04:53:31;23.77;;;16.50;;
11004;SDS011;5555;59.622;16.556;2022-12-18T04:56:07;23.93;;;17.00;;
11004;SDS011;5555;59.622;16.556;2022-12-18T04:58:35;21.93;;;16.80;;
11004;SDS011;5555;59.622;16.556;2022-12-18T05:01:01;20.97;;;17.10;;
11004;SDS011;5555;59.622;16.556;2022-12-18T05:03:27;24.40;;;16.53;;
11004;SDS011;5555;59.622;16.556;2022-12-18T05:05:53;22.77;;;16.13;;
11004;SDS011;5555;59.622;16.556;2022-12-18T05:08:18;24.00;;;17.00;;
11004;SDS011;5555;59.622;16.556;2022-12-18T05:10:44;24.97;;;17.13;;
11004;SDS011;5555;59.622;16.556;2022-12-18T05:13:10;21.27;;;16.27;;
11004;SDS011;5555;59.622;16.556;2022-12-18T05:15:35;23.20;;;16.27;;
11004;SDS011;5555;59.622;16.556;2022-12-18T05:18:01;22.63;;;16.57;;
11004;SDS011;5555;59.622;16.556;2022-12-18T05:20:27;22.13;;;15.93;;
11004;SDS011;5555;59.622;16.556;2022-12-18T05:22:53;20.57;;;16.17;;
11004;SDS011;5555;59.622;16.556;2022-12-18T05:25:19;24.97;;;16.27;;
11004;SDS011;5555;59.622;16.556;2022-12-18T05:27:46;22.17;;;16.40;;
11004;SDS011;5555;59.622;16.556;2022-12-18T05:30:12;21.77;;;15.83;;
11004;SDS011;5555;59.622;16.556;2022-12-18T05:32:38;25.33;;;16.10;;
11004;SDS011;5555;59.622;16.556;2022-12-18T05:35:04;21.87;;;16.37;;
11004;SDS011;5555;59.622;16.556;2022-12-18T05:37:31;23.27;;;17.90;;
11004;SDS011;5555;59.622;16.556;2022-12-18T05:39:56;23.27;;;16.70;;
11004;SDS011;5555;59.622;16.556;2022-12-18T05:42:22;25.90;;;18.67;;
11004;SDS011;5555;59.622;16.556;2022-12-18T05:44:47;24.50;;;17.30;;
11004;SDS011;5555;59.622;16.556;2022-12-18T05:47:13;23.10;;;16.67;;
11004;SDS011;5555;59.622;16.556;2022-12-18T05:49:39;24.33;;;18.17;;
11004;SDS011;5555;59.622;16.556;2022-12-18T05:52:04;24.67;;;17.93;;
11004;SDS011;5555;59.622;16.556;2022-12-18T05:54:30;22.47;;;16.80;;
11004;SDS011;5555;59.622;16.556;2022-12-18T05:56:56;25.47;;;17.20;;
11004;SDS011;5555;59.622;16.556;2022-12-18T05:59:22;23.97;;;17.17;;
11004;SDS011;5555;59.622;16.556;2022-12-18T06:01:47;22.47;;;16.73;;
11004;SDS011;5555;59.622;16.556;2022-12-18T06:04:13;20.63;;;15.43;;
11004;SDS011;5555;59.622;16.556;2022-12-18T06:06:39;21.87;;;17.00;;
11004;SDS011;5555;59.622;16.556;2022-12-18T06:09:04;20.83;;;15.47;;
11004;SDS011;5555;59.622;16.556;2022-12-18T06:11:35;20.23;;;14.67;;
11004;SDS011;5555;59.622;16.556;2022-12-18T06:14:01;23.30;;;15.97;;
11004;SDS011;5555;59.622;16.556;2022-12-18T06:16:28;19.57;;;15.53;;
11004;SDS011;5555;59.622;16.556;2022-12-18T06:18:58;21.33;;;15.20;;
11004;SDS011;5555;59.622;16.556;2022-12-18T06:21:25;23.27;;;15.83;;
11004;SDS011;5555;59.622;16.556;2022-12-18T06:23:51;19.23;;;14.90;;
11004;SDS011;5555;59.622;16.556;2022-12-18T06:26:16;20.27;;;14.90;;
11004;SDS011;5555;59.622;16.556;2022-12-18T06:28:42;19.53;;;15.47;;
11004;SDS011;5555;59.622;16.556;2022-12-18T06:31:08;20.33;;;15.07;;
11004;SDS011;5555;59.622;16.556;2022-12-18T06:33:34;19.90;;;14.73;;
11004;SDS011;5555;59.622;16.556;2022-12-18T06:36:02;21.13;;;14.47;;
11004;SDS011;5555;59.622;16.556;2022-12-18T06:38:30;19.03;;;14.90;;
11004;SDS011;5555;59.622;16.556;2022-12-18T06:40:57;20.77;;;15.37;;
11004;SDS011;5555;59.622;16.556;2022-12-18T06:43:23;20.67;;;15.03;;
11004;SDS011;5555;59.622;16.556;2022-12-18T06:45:49;21.90;;;15.57;;
11004;SDS011;5555;59.622;16.556;2022-12-18T06:48:18;18.23;;;13.50;;
11004;SDS011;5555;59.622;16.556;2022-12-18T06:50:47;18.23;;;14.40;;
11004;SDS011;5555;59.622;16.556;2022-12-18T06:53:13;18.17;;;14.20;;
11004;SDS011;5555;59.622;16.556;2022-12-18T06:55:38;20.10;;;14.97;;
11004;SDS011;5555;59.622;16.556;2022-12-18T06:58:04;18.90;;;15.83;;
11004;SDS011;5555;59.622;16.556;2022-12-18T07:00:29;18.33;;;15.17;;
11004;SDS011;5555;59.622;16.556;2022-12-18T07:02:55;19.43;;;13.83;;
11004;SDS011;5555;59.622;16.556;2022-12-18T07:05:21;21.77;;;15.07;;
11004;SDS011;5555;59.622;16.556;2022-12-18T07:07:46;19.27;;;14.33;;
11004;SDS011;5555;59.622;16.556;2022-12-18T07:10:12;16.17;;;14.10;;
11004;SDS011;5555;59.622;16.556;2022-12-18T07:12:37;18.13;;;14.30;;
11004;SDS011;5555;59.622;16.556;2022-12-18T07:15:03;20.70;;;14.93;;
11004;SDS011;5555;59.622;16.556;2022-12-18T07:17:29;18.23;;;14.37;;
11004;SDS011;5555;59.622;16.556;2022-12-18T07:19:55;17.03;;;13.77;;
11004;SDS011;5555;59.622;16.556;2022-12-18T07:22:21;18.60;;;13.80;;
11004;SDS011;5555;59.622;16.556;2022-12-18T07:24:47;19.33;;;15.23;;
11004;SDS011;5555;59.622;16.556;2022-12-18T07:27:15;18.40;;;14.37;;
11004;SDS011;5555;59.622;16.556;2022-12-18T07:29:40;19.63;;;13.97;;
11004;SDS011;5555;59.622;16.556;2022-12-18T07:32:06;17.10;;;13.40;;
11004;SDS011;5555;59.622;16.556;2022-12-18T07:34:32;16.67;;;13.87;;
11004;SDS011;5555;59.622;16.556;2022-12-18T07:36:58;17.33;;;13.73;;
11004;SDS011;5555;59.622;16.556;2022-12-18T07:39:23;21.50;;;15.53;;
11004;SDS011;5555;59.622;16.556;2022-12-18T07:41:49;16.57;;;14.13;;
11004;SDS011;5555;59.622;16.556;2022-12-18T07:44:34;17.30;;;14.03;;
11004;SDS011;5555;59.622;16.556;2022-12-18T07:47:00;19.73;;;14.63;;
11004;SDS011;5555;59.622;16.556;2022-12-18T07:49:26;18.53;;;14.13;;
11004;SDS011;5555;59.622;16.556;2022-12-18T07:51:53;16.67;;;13.07;;
11004;SDS011;5555;59.622;16.556;2022-12-18T07:54:21;19.83;;;15.03;;
11004;SDS011;5555;59.622;16.556;2022-12-18T07:56:47;21.13;;;15.70;;
11004;SDS011;5555;59.622;16.556;2022-12-18T07:59:12;18.80;;;15.53;;
11004;SDS011;5555;59.622;16.556;2022-12-18T08:01:38;18.43;;;15.23;;
11004;SDS011;5555;59.622;16.556;2022-12-18T08:04:04;20.20;;;14.77;;
11004;SDS011;5555;59.622;16.556;2022-12-18T08:06:29;18.60;;;16.27;;
11004;SDS011;5555;59.622;16.556;2022-12-18T08:08:55;20.33;;;15.17;;
11004;SDS011;5555;59.622;16.556;2022-12-18T08:11:22;18.63;;;14.83;;
11004;SDS011;5555;59.622;16.556;2022-12-18T08:13:49;20.03;;;15.53;;
11004;SDS011;5555;59.622;16.556;2022-12-18T08:16:15;19.70;;;14.70;;
11004;SDS011;5555;59.622;16.556;2022-12-18T08:18:40;17.63;;;14.07;;
11004;SDS011;5555;59.622;16.556;2022-12-18T08:21:13;18.97;;;14.77;;
11004;SDS011;5555;59.622;16.556;2022-12-18T08:23:40;17.93;;;14.37;;
11004;SDS011;5555;59.622;16.556;2022-12-18T08:26:07;17.83;;;14.90;;
11004;SDS011;5555;59.622;16.556;2022-12-18T08:28:33;18.40;;;15.27;;
11004;SDS011;5555;59.622;16.556;2022-12-18T08:30:59;18.93;;;14.30;;
11004;SDS011;5555;59.622;16.556;2022-12-18T08:33:24;18.07;;;14.07;;
11004;SDS011;5555;59.622;16.556;2022-12-18T08:35:51;16.87;;;14.43;;
11004;SDS011;5555;59.622;16.556;2022-12-18T08:38:17;19.80;;;14.30;;
11004;SDS011;5555;59.622;16.556;2022-12-18T08:40:42;15.73;;;13.80;;
11004;SDS011;5555;59.622;16.556;2022-12-18T08:43:11;15.07;;;13.47;;
11004;SDS011;5555;59.622;16.556;2022-12-18T08:45:55;15.37;;;13.03;;
11004;SDS011;5555;59.622;16.556;2022-12-18T08:48:21;12.33;;;11.10;;
11004;SDS011;5555;59.622;16.556;2022-12-18T08:50:54;16.73;;;13.27;;
11004;SDS011;5555;59.622;16.556;2022-12-18T08:53:23;15.67;;;13.33;;
11004;SDS011;5555;59.622;16.556;2022-12-18T08:55:50;15.70;;;13.50;;
11004;SDS011;5555;59.622;16.556;2022-12-18T08:58:16;16.90;;;12.37;;
11004;SDS011;5555;59.622;16.556;2022-12-18T09:00:42;16.07;;;14.43;;
11004;SDS011;5555;59.622;16.556;2022-12-18T09:03:11;17.73;;;13.10;;
11004;SDS011;5555;59.622;16.556;2022-12-18T09:05:42;14.53;;;12.37;;
11004;SDS011;5555;59.622;16.556;2022-12-18T09:08:10;14.30;;;12.80;;
11004;SDS011;5555;59.622;16.556;2022-12-18T09:10:45;14.47;;;12.37;;
11004;SDS011;5555;59.622;16.556;2022-12-18T09:13:12;16.23;;;12.53;;
11004;SDS011;5555;59.622;16.556;2022-12-18T09:15:41;15.87;;;11.87;;
11004;SDS011;5555;59.622;16.556;2022-12-18T09:18:08;14.63;;;12.33;;
11004;SDS011;5555;59.622;16.556;2022-12-18T09:20:34;14.53;;;12.20;;
11004;SDS011;5555;59.622;16.556;2022-12-18T09:23:01;14.50;;;12.27;;
11004;SDS011;5555;59.622;16.556;2022-12-18T09:25:28;15.20;;;13.67;;
11004;SDS011;5555;59.622;16.556;2022-12-18T09:27:58;15.37;;;12.77;;
11004;SDS011;5555;59.622;16.556;2022-12-18T09:30:24;14.37;;;11.97;;
11004;SDS011;5555;59.622;16.556;2022-12-18T09:32:50;17.73;;;11.80;;
11004;SDS011;5555;59.622;16.556;2022-12-18T09:35:19;16.13;;;12.80;;
11004;SDS011;5555;59.622;16.556;2022-12-18T09:37:44;15.37;;;11.20;;
11004;SDS011;5555;59.622;16.556;2022-12-18T09:40:18;15.13;;;12.43;;
11004;SDS011;5555;59.622;16.556;2022-12-18T09:42:48;12.60;;;11.27;;
11004;SDS011;5555;59.622;16.556;2022-12-18T09:45:19;14.97;;;11.57;;
11004;SDS011;5555;59.622;16.556;2022-12-18T09:47:45;14.70;;;11.67;;
11004;SDS011;5555;59.622;16.556;2022-12-18T09:50:30;14.47;;;11.87;;
11004;SDS011;5555;59.622;16.556;2022-12-18T09:53:02;12.97;;;11.53;;
11004;SDS011;5555;59.622;16.556;2022-12-18T09:55:39;16.07;;;12.43;;
11004;SDS011;5555;59.622;16.556;2022-12-18T09:58:12;13.57;;;12.07;;
11004;SDS011;5555;59.622;16.556;2022-12-18T10:00:52;15.23;;;11.27;;
11004;SDS011;5555;59.622;16.556;2022-12-18T10:03:18;14.07;;;10.77;;
11004;SDS011;5555;59.622;16.556;2022-12-18T10:11:18;12.30;;;9.63;;
11004;SDS011;5555;59.622;16.556;2022-12-18T10:13:56;13.60;;;9.43;;
11004;SDS011;5555;59.622;16.556;2022-12-18T10:16:36;12.53;;;9.87;;
11004;SDS011;5555;59.622;16.556;2022-12-18T10:19:34;11.77;;;8.57;;
11004;SDS011;5555;59.622;16.556;2022-12-18T10:25:05;11.03;;;8.80;;
11004;SDS011;5555;59.622;16.556;2022-12-18T10:27:58;12.60;;;8.67;;
11004;SDS011;5555;59.622;16.556;2022-12-18T10:30:29;12.60;;;9.07;;
11004;SDS011;5555;59.622;16.556;2022-12-18T10:32:58;12.43;;;9.17;;
11004;SDS011;5555;59.622;16.556;2022-12-18T10:35:26;13.20;;;8.67;;
11004;SDS011;5555;59.622;16.556;2022-12-18T10:37:59;12.77;;;8.53;;
11004;SDS011;5555;59.622;16.556;2022-12-18T10:40:26;11.10;;;7.70;;
11004;SDS011;5555;59.622;16.556;2022-12-18T10:43:11;11.00;;;8.30;;
11004;SDS011;5555;59.622;16.556;2022-12-18T10:45:39;11.10;;;7.83;;
11004;SDS011;5555;59.622;16.556;2022-12-18T10:48:16;12.00;;;8.27;;
11004;SDS011;5555;59.622;16.556;2022-12-18T10:50:45;9.50;;;8.00;;
11004;SDS011;5555;59.622;16.556;2022-12-18T10:53:15;13.17;;;8.10;;
11004;SDS011;5555;59.622;16.556;2022-12-18T10:55:47;12.27;;;8.23;;
11004;SDS011;5555;59.622;16.556;2022-12-18T11:01:12;12.00;;;8.70;;
11004;SDS011;5555;59.622;16.556;2022-12-18T11:03:39;10.87;;;7.57;;
11004;SDS011;5555;59.622;16.556;2022-12-18T11:06:08;12.57;;;8.27;;
11004;SDS011;5555;59.622;16.556;2022-12-18T11:08:35;14.27;;;7.90;;
11004;SDS011;5555;59.622;16.556;2022-12-18T11:11:02;15.10;;;8.53;;
11004;SDS011;5555;59.622;16.556;2022-12-18T11:13:29;10.70;;;8.07;;
11004;SDS011;5555;59.622;16.556;2022-12-18T11:15:56;10.67;;;6.90;;
11004;SDS011;5555;59.622;16.556;2022-12-18T11:21:11;10.07;;;7.50;;
11004;SDS011;5555;59.622;16.556;2022-12-18T11:23:44;8.00;;;6.13;;
11004;SDS011;5555;59.622;16.556;2022-12-18T11:26:20;12.53;;;6.73;;
11004;SDS011;5555;59.622;16.556;2022-12-18T11:29:17;8.77;;;6.27;;
11004;SDS011;5555;59.622;16.556;2022-12-18T11:31:43;11.43;;;6.43;;
11004;SDS011;5555;59.622;16.556;2022-12-18T11:36:57;14.33;;;6.20;;
11004;SDS011;5555;59.622;16.556;2022-12-18T11:42:10;9.00;;;5.97;;
11004;SDS011;5555;59.622;16.556;2022-12-18T11:44:50;10.00;;;5.67;;
11004;SDS011;5555;59.622;16.556;2022-12-18T11:47:38;13.40;;;5.53;;
11004;SDS011;5555;59.622;16.556;2022-12-18T11:50:10;10.60;;;5.40;;
11004;SDS011;5555;59.622;16.556;2022-12-18T11:52:40;9.03;;;5.47;;
11004;SDS011;5555;59.622;16.556;2022-12-18T11:55:11;10.07;;;5.40;;
11004;SDS011;5555;59.622;16.556;2022-12-18T12:00:35;8.37;;;4.43;;
11004;SDS011;5555;59.622;16.556;2022-12-18T12:05:43;12.37;;;4.37;;
11004;SDS011;5555;59.622;16.556;2022-12-18T12:08:41;8.67;;;4.13;;
11004;SDS011;5555;59.622;16.556;2022-12-18T12:16:57;6.30;;;3.80;;
11004;SDS011;5555;59.622;16.556;2022-12-18T12:22:00;8.90;;;3.30;;
11004;SDS011;5555;59.622;16.556;2022-12-18T12:27:19;6.53;;;3.27;;
11004;SDS011;5555;59.622;16.556;2022-12-18T12:29:58;6.23;;;2.83;;
11004;SDS011;5555;59.622;16.556;2022-12-18T12:32:34;4.70;;;3.07;;
11004;SDS011;5555;59.622;16.556;2022-12-18T12:35:09;7.77;;;3.57;;
11004;SDS011;5555;59.622;16.556;2022-12-18T12:40:35;5.27;;;2.53;;
11004;SDS011;5555;59.622;16.556;2022-12-18T12:46:03;8.20;;;3.20;;
11004;SDS011;5555;59.622;16.556;2022-12-18T12:48:37;9.43;;;3.50;;
11004;SDS011;5555;59.622;16.556;2022-12-18T12:53:44;6.80;;;3.20;;
11004;SDS011;5555;59.622;16.556;2022-12-18T12:56:11;6.07;;;2.73;;
11004;SDS011;5555;59.622;16.556;2022-12-18T13:03:53;7.83;;;2.93;;
11004;SDS011;5555;59.622;16.556;2022-12-18T13:06:43;9.53;;;3.00;;
11004;SDS011;5555;59.622;16.556;2022-12-18T13:09:15;8.87;;;2.77;;
11004;SDS011;5555;59.622;16.556;2022-12-18T13:11:41;4.87;;;2.57;;
11004;SDS011;5555;59.622;16.556;2022-12-18T13:14:29;6.90;;;2.30;;
11004;SDS011;5555;59.622;16.556;2022-12-18T13:19:39;7.70;;;2.80;;
11004;SDS011;5555;59.622;16.556;2022-12-18T13:22:12;5.70;;;2.47;;
11004;SDS011;5555;59.622;16.556;2022-12-18T13:24:50;5.80;;;2.30;;
11004;SDS011;5555;59.622;16.556;2022-12-18T13:30:36;5.57;;;2.50;;
11004;SDS011;5555;59.622;16.556;2022-12-18T13:38:19;12.47;;;2.83;;
11004;SDS011;5555;59.622;16.556;2022-12-18T13:43:30;13.30;;;3.13;;
11004;SDS011;5555;59.622;16.556;2022-12-18T13:48:57;7.07;;;2.37;;
11004;SDS011;5555;59.622;16.556;2022-12-18T13:51:31;6.13;;;2.17;;
11004;SDS011;5555;59.622;16.556;2022-12-18T13:53:59;7.23;;;2.50;;
11004;SDS011;5555;59.622;16.556;2022-12-18T13:56:47;8.00;;;2.63;;
11004;SDS011;5555;59.622;16.556;2022-12-18T13:59:14;8.23;;;2.50;;
11004;SDS011;5555;59.622;16.556;2022-12-18T14:02:04;6.90;;;2.23;;
11004;SDS011;5555;59.622;16.556;2022-12-18T14:04:38;8.20;;;3.07;;
11004;SDS011;5555;59.622;16.556;2022-12-18T14:07:07;8.33;;;2.40;;
11004;SDS011;5555;59.622;16.556;2022-12-18T14:09:57;6.13;;;2.13;;
11004;SDS011;5555;59.622;16.556;2022-12-18T14:12:26;10.13;;;2.53;;
11004;SDS011;5555;59.622;16.556;2022-12-18T14:18:00;9.77;;;2.70;;
11004;SDS011;5555;59.622;16.556;2022-12-18T14:20:29;9.00;;;2.60;;
11004;SDS011;5555;59.622;16.556;2022-12-18T14:22:57;12.50;;;3.20;;
11004;SDS011;5555;59.622;16.556;2022-12-18T14:25:25;7.60;;;2.87;;
11004;SDS011;5555;59.622;16.556;2022-12-18T14:28:00;8.53;;;2.50;;
11004;SDS011;5555;59.622;16.556;2022-12-18T14:30:40;7.20;;;2.50;;
11004;SDS011;5555;59.622;16.556;2022-12-18T14:33:14;10.67;;;2.77;;
11004;SDS011;5555;59.622;16.556;2022-12-18T14:35:41;7.10;;;2.53;;
11004;SDS011;5555;59.622;16.556;2022-12-18T14:38:27;9.43;;;2.90;;
11004;SDS011;5555;59.622;16.556;2022-12-18T14:41:19;9.67;;;2.90;;
11004;SDS011;5555;59.622;16.556;2022-12-18T14:43:46;6.73;;;2.30;;
11004;SDS011;5555;59.622;16.556;2022-12-18T14:48:57;7.50;;;2.63;;
11004;SDS011;5555;59.622;16.556;2022-12-18T14:51:57;10.73;;;2.80;;
11004;SDS011;5555;59.622;16.556;2022-12-18T14:54:25;12.13;;;3.40;;
11004;SDS011;5555;59.622;16.556;2022-12-18T14:59:28;8.63;;;2.60;;
11004;SDS011;5555;59.622;16.556;2022-12-18T15:01:59;8.47;;;2.53;;
11004;SDS011;5555;59.622;16.556;2022-12-18T15:04:27;6.13;;;2.60;;
11004;SDS011;5555;59.622;16.556;2022-12-18T15:07:08;8.20;;;2.63;;
11004;SDS011;5555;59.622;16.556;2022-12-18T15:09:40;7.00;;;3.17;;
11004;SDS011;5555;59.622;16.556;2022-12-18T15:12:19;11.33;;;2.50;;
11004;SDS011;5555;59.622;16.556;2022-12-18T15:14:51;7.47;;;2.60;;
11004;SDS011;5555;59.622;16.556;2022-12-18T15:17:18;8.17;;;2.97;;
11004;SDS011;5555;59.622;16.556;2022-12-18T15:19:47;8.63;;;2.87;;
11004;SDS011;5555;59.622;16.556;2022-12-18T15:22:25;8.80;;;2.67;;
11004;SDS011;5555;59.622;16.556;2022-12-18T15:24:53;9.40;;;3.07;;
11004;SDS011;5555;59.622;16.556;2022-12-18T15:27:21;10.97;;;3.00;;
11004;SDS011;5555;59.622;16.556;2022-12-18T15:32:33;10.63;;;3.77;;
11004;SDS011;5555;59.622;16.556;2022-12-18T15:37:34;10.63;;;3.17;;
11004;SDS011;5555;59.622;16.556;2022-12-18T15:40:00;7.30;;;2.77;;
11004;SDS011;5555;59.622;16.556;2022-12-18T15:42:27;8.13;;;2.63;;
11004;SDS011;5555;59.622;16.556;2022-12-18T15:45:12;11.93;;;2.70;;
11004;SDS011;5555;59.622;16.556;2022-12-18T15:47:39;11.57;;;2.57;;
11004;SDS011;5555;59.622;16.556;2022-12-18T15:50:06;7.27;;;2.40;;
11004;SDS011;5555;59.622;16.556;2022-12-18T15:52:34;10.17;;;3.40;;
11004;SDS011;5555;59.622;16.556;2022-12-18T15:55:14;9.67;;;2.67;;
11004;SDS011;5555;59.622;16.556;2022-12-18T15:58:00;7.93;;;2.67;;
11004;SDS011;5555;59.622;16.556;2022-12-18T16:00:26;7.17;;;2.23;;
11004;SDS011;5555;59.622;16.556;2022-12-18T16:02:51;7.50;;;2.40;;
11004;SDS011;5555;59.622;16.556;2022-12-18T16:05:18;8.00;;;2.43;;
11004;SDS011;5555;59.622;16.556;2022-12-18T16:07:46;5.70;;;2.17;;
11004;SDS011;5555;59.622;16.556;2022-12-18T16:10:12;7.43;;;2.40;;
11004;SDS011;5555;59.622;16.556;2022-12-18T16:12:38;12.13;;;3.10;;
11004;SDS011;5555;59.622;16.556;2022-12-18T16:15:04;6.37;;;2.47;;
11004;SDS011;5555;59.622;16.556;2022-12-18T16:17:31;7.10;;;2.57;;
11004;SDS011;5555;59.622;16.556;2022-12-18T16:19:57;10.57;;;2.93;;
11004;SDS011;5555;59.622;16.556;2022-12-18T16:22:24;6.50;;;2.97;;
11004;SDS011;5555;59.622;16.556;2022-12-18T16:24:52;10.07;;;2.97;;
11004;SDS011;5555;59.622;16.556;2022-12-18T16:27:18;6.43;;;2.57;;
11004;SDS011;5555;59.622;16.556;2022-12-18T16:29:44;10.20;;;2.87;;
11004;SDS011;5555;59.622;16.556;2022-12-18T16:32:14;5.77;;;2.10;;
11004;SDS011;5555;59.622;16.556;2022-12-18T16:34:41;8.53;;;2.70;;